sensor_id;sensor_type;location;lat;lon;timestamp;P1;durP1;ratioP1;P2;durP2;ratioP2
65822;SDS011;52585;47.566;19.056;2023-02-28T00:01:07;14.00;;;7.40;;
65822;SDS011;52585;47.566;19.056;2023-02-28T00:03:33;11.30;;;7.80;;
65822;SDS011;52585;47.566;19.056;2023-02-28T00:06:02;11.10;;;7.70;;
65822;SDS011;52585;47.566;19.056;2023-02-28T00:08:29;10.20;;;7.20;;
65822;SDS011;52585;47.566;19.056;2023-02-28T00:10:54;11.70;;;7.60;;
65822;SDS011;52585;47.566;19.056;2023-02-28T00:13:20;11.90;;;7.80;;
65822;SDS011;52585;47.566;19.056;2023-02-28T00:15:46;9.20;;;7.20;;
65822;SDS011;52585;47.566;19.056;2023-02-28T00:18:11;8.30;;;7.10;;
65822;SDS011;52585;47.566;19.056;2023-02-28T00:20:37;11.70;;;7.60;;
65822;SDS011;52585;47.566;19.056;2023-02-28T00:23:03;11.40;;;7.20;;
65822;SDS011;52585;47.566;19.056;2023-02-28T00:25:28;10.80;;;7.70;;
65822;SDS011;52585;47.566;19.056;2023-02-28T00:27:54;11.20;;;7.10;;
65822;SDS011;52585;47.566;19.056;2023-02-28T00:30:22;13.00;;;7.60;;
65822;SDS011;52585;47.566;19.056;2023-02-28T00:32:49;9.90;;;7.50;;
65822;SDS011;52585;47.566;19.056;2023-02-28T00:35:16;10.40;;;7.60;;
65822;SDS011;52585;47.566;19.056;2023-02-28T00:37:42;10.90;;;7.20;;
65822;SDS011;52585;47.566;19.056;2023-02-28T00:40:09;11.90;;;8.30;;
65822;SDS011;52585;47.566;19.056;2023-02-28T00:42:36;13.50;;;8.00;;
65822;SDS011;52585;47.566;19.056;2023-02-28T00:45:03;10.70;;;7.40;;
65822;SDS011;52585;47.566;19.056;2023-02-28T00:47:31;11.10;;;7.40;;
65822;SDS011;52585;47.566;19.056;2023-02-28T00:49:57;11.90;;;8.50;;
65822;SDS011;52585;47.566;19.056;2023-02-28T00:52:22;10.40;;;8.00;;
65822;SDS011;52585;47.566;19.056;2023-02-28T00:54:48;9.80;;;7.40;;
65822;SDS011;52585;47.566;19.056;2023-02-28T00:57:14;12.20;;;8.10;;
65822;SDS011;52585;47.566;19.056;2023-02-28T00:59:39;9.10;;;7.60;;
65822;SDS011;52585;47.566;19.056;2023-02-28T01:02:05;11.60;;;7.50;;
65822;SDS011;52585;47.566;19.056;2023-02-28T01:04:30;10.30;;;8.00;;
65822;SDS011;52585;47.566;19.056;2023-02-28T01:06:56;14.80;;;8.20;;
65822;SDS011;52585;47.566;19.056;2023-02-28T01:09:21;12.90;;;8.60;;
65822;SDS011;52585;47.566;19.056;2023-02-28T01:11:47;11.90;;;7.70;;
65822;SDS011;52585;47.566;19.056;2023-02-28T01:14:17;11.80;;;7.80;;
65822;SDS011;52585;47.566;19.056;2023-02-28T01:16:43;11.00;;;6.90;;
65822;SDS011;52585;47.566;19.056;2023-02-28T01:19:09;9.90;;;7.20;;
65822;SDS011;52585;47.566;19.056;2023-02-28T01:21:35;13.90;;;7.80;;
65822;SDS011;52585;47.566;19.056;2023-02-28T01:24:02;9.80;;;7.00;;
65822;SDS011;52585;47.566;19.056;2023-02-28T01:26:29;9.00;;;6.90;;
65822;SDS011;52585;47.566;19.056;2023-02-28T01:28:55;8.70;;;6.80;;
65822;SDS011;52585;47.566;19.056;2023-02-28T01:31:22;9.30;;;6.50;;
65822;SDS011;52585;47.566;19.056;2023-02-28T01:33:48;7.60;;;6.30;;
65822;SDS011;52585;47.566;19.056;2023-02-28T01:36:20;9.20;;;6.00;;
65822;SDS011;52585;47.566;19.056;2023-02-28T01:38:48;10.60;;;7.60;;
65822;SDS011;52585;47.566;19.056;2023-02-28T01:41:21;9.90;;;7.40;;
65822;SDS011;52585;47.566;19.056;2023-02-28T01:46:15;12.20;;;7.90;;
65822;SDS011;52585;47.566;19.056;2023-02-28T01:49:02;12.20;;;8.40;;
65822;SDS011;52585;47.566;19.056;2023-02-28T01:51:39;10.20;;;6.70;;
65822;SDS011;52585;47.566;19.056;2023-02-28T01:54:14;12.20;;;7.70;;
65822;SDS011;52585;47.566;19.056;2023-02-28T01:56:54;10.90;;;7.70;;
65822;SDS011;52585;47.566;19.056;2023-02-28T01:59:33;10.40;;;7.20;;
65822;SDS011;52585;47.566;19.056;2023-02-28T02:02:01;10.80;;;7.20;;
65822;SDS011;52585;47.566;19.056;2023-02-28T02:04:33;14.20;;;8.40;;
65822;SDS011;52585;47.566;19.056;2023-02-28T02:07:04;12.40;;;8.20;;
65822;SDS011;52585;47.566;19.056;2023-02-28T02:09:30;13.90;;;9.00;;
65822;SDS011;52585;47.566;19.056;2023-02-28T02:11:56;13.60;;;9.30;;
65822;SDS011;52585;47.566;19.056;2023-02-28T02:14:42;15.50;;;9.50;;
65822;SDS011;52585;47.566;19.056;2023-02-28T02:17:16;20.70;;;12.60;;
65822;SDS011;52585;47.566;19.056;2023-02-28T02:31:28;20.30;;;12.40;;
65822;SDS011;52585;47.566;19.056;2023-02-28T02:34:28;17.50;;;10.20;;
65822;SDS011;52585;47.566;19.056;2023-02-28T02:45:39;7.20;;;4.80;;
65822;SDS011;52585;47.566;19.056;2023-02-28T02:48:11;7.90;;;6.60;;
65822;SDS011;52585;47.566;19.056;2023-02-28T02:50:48;11.50;;;7.70;;
65822;SDS011;52585;47.566;19.056;2023-02-28T02:53:19;17.00;;;11.00;;
65822;SDS011;52585;47.566;19.056;2023-02-28T02:55:51;15.70;;;11.20;;
65822;SDS011;52585;47.566;19.056;2023-02-28T02:58:24;15.80;;;10.90;;
65822;SDS011;52585;47.566;19.056;2023-02-28T03:00:56;17.00;;;11.70;;
65822;SDS011;52585;47.566;19.056;2023-02-28T03:03:24;18.30;;;11.90;;
65822;SDS011;52585;47.566;19.056;2023-02-28T03:05:55;23.70;;;14.20;;
65822;SDS011;52585;47.566;19.056;2023-02-28T03:08:22;25.40;;;14.20;;
65822;SDS011;52585;47.566;19.056;2023-02-28T03:10:50;19.50;;;13.80;;
65822;SDS011;52585;47.566;19.056;2023-02-28T03:22:11;20.80;;;13.20;;
65822;SDS011;52585;47.566;19.056;2023-02-28T03:27:23;18.70;;;11.10;;
65822;SDS011;52585;47.566;19.056;2023-02-28T03:30:02;14.60;;;10.10;;
65822;SDS011;52585;47.566;19.056;2023-02-28T03:35:22;16.30;;;10.10;;
65822;SDS011;52585;47.566;19.056;2023-02-28T03:37:58;16.20;;;9.80;;
65822;SDS011;52585;47.566;19.056;2023-02-28T03:40:33;13.00;;;8.50;;
65822;SDS011;52585;47.566;19.056;2023-02-28T03:43:09;12.40;;;9.00;;
65822;SDS011;52585;47.566;19.056;2023-02-28T03:45:39;13.90;;;8.90;;
65822;SDS011;52585;47.566;19.056;2023-02-28T03:48:21;11.00;;;7.70;;
65822;SDS011;52585;47.566;19.056;2023-02-28T03:50:55;8.90;;;6.60;;
65822;SDS011;52585;47.566;19.056;2023-02-28T03:53:37;10.20;;;6.80;;
65822;SDS011;52585;47.566;19.056;2023-02-28T03:56:30;11.20;;;7.30;;
65822;SDS011;52585;47.566;19.056;2023-02-28T03:59:26;8.80;;;6.50;;
65822;SDS011;52585;47.566;19.056;2023-02-28T04:01:57;9.40;;;6.30;;
65822;SDS011;52585;47.566;19.056;2023-02-28T04:04:23;8.50;;;6.30;;
65822;SDS011;52585;47.566;19.056;2023-02-28T04:06:51;8.40;;;6.40;;
65822;SDS011;52585;47.566;19.056;2023-02-28T04:09:18;9.70;;;6.00;;
65822;SDS011;52585;47.566;19.056;2023-02-28T04:11:47;9.10;;;5.80;;
65822;SDS011;52585;47.566;19.056;2023-02-28T04:14:18;10.30;;;5.60;;
65822;SDS011;52585;47.566;19.056;2023-02-28T04:16:45;7.70;;;5.20;;
65822;SDS011;52585;47.566;19.056;2023-02-28T04:19:12;6.80;;;5.70;;
65822;SDS011;52585;47.566;19.056;2023-02-28T04:21:41;8.20;;;5.40;;
65822;SDS011;52585;47.566;19.056;2023-02-28T04:24:23;8.30;;;5.40;;
65822;SDS011;52585;47.566;19.056;2023-02-28T04:26:53;7.10;;;5.00;;
65822;SDS011;52585;47.566;19.056;2023-02-28T04:29:26;6.80;;;5.30;;
65822;SDS011;52585;47.566;19.056;2023-02-28T04:31:53;6.30;;;5.10;;
65822;SDS011;52585;47.566;19.056;2023-02-28T04:34:21;9.20;;;5.60;;
65822;SDS011;52585;47.566;19.056;2023-02-28T04:36:47;6.30;;;5.30;;
65822;SDS011;52585;47.566;19.056;2023-02-28T04:39:19;8.00;;;4.90;;
65822;SDS011;52585;47.566;19.056;2023-02-28T04:41:45;7.10;;;5.50;;
65822;SDS011;52585;47.566;19.056;2023-02-28T04:44:11;6.40;;;4.90;;
65822;SDS011;52585;47.566;19.056;2023-02-28T04:46:37;5.70;;;5.00;;
65822;SDS011;52585;47.566;19.056;2023-02-28T04:49:03;6.40;;;5.10;;
65822;SDS011;52585;47.566;19.056;2023-02-28T04:51:28;7.70;;;4.90;;
65822;SDS011;52585;47.566;19.056;2023-02-28T04:53:54;5.10;;;4.40;;
65822;SDS011;52585;47.566;19.056;2023-02-28T04:56:20;6.30;;;5.00;;
65822;SDS011;52585;47.566;19.056;2023-02-28T04:58:47;6.30;;;4.70;;
65822;SDS011;52585;47.566;19.056;2023-02-28T05:01:22;7.30;;;5.20;;
65822;SDS011;52585;47.566;19.056;2023-02-28T05:03:49;6.10;;;4.70;;
65822;SDS011;52585;47.566;19.056;2023-02-28T05:06:16;5.80;;;4.80;;
65822;SDS011;52585;47.566;19.056;2023-02-28T05:08:43;5.10;;;4.30;;
65822;SDS011;52585;47.566;19.056;2023-02-28T05:11:31;6.60;;;4.50;;
65822;SDS011;52585;47.566;19.056;2023-02-28T05:14:05;4.40;;;3.90;;
65822;SDS011;52585;47.566;19.056;2023-02-28T05:16:35;6.00;;;4.60;;
65822;SDS011;52585;47.566;19.056;2023-02-28T05:19:00;6.70;;;4.30;;
65822;SDS011;52585;47.566;19.056;2023-02-28T05:21:32;5.60;;;4.40;;
65822;SDS011;52585;47.566;19.056;2023-02-28T05:24:04;4.90;;;4.20;;
65822;SDS011;52585;47.566;19.056;2023-02-28T05:26:38;5.90;;;4.60;;
65822;SDS011;52585;47.566;19.056;2023-02-28T05:29:05;5.80;;;4.00;;
65822;SDS011;52585;47.566;19.056;2023-02-28T05:31:31;6.90;;;5.20;;
65822;SDS011;52585;47.566;19.056;2023-02-28T05:33:57;7.50;;;4.70;;
65822;SDS011;52585;47.566;19.056;2023-02-28T05:36:23;4.80;;;4.10;;
65822;SDS011;52585;47.566;19.056;2023-02-28T05:38:49;6.40;;;4.40;;
65822;SDS011;52585;47.566;19.056;2023-02-28T05:41:16;5.70;;;4.00;;
65822;SDS011;52585;47.566;19.056;2023-02-28T05:43:45;6.70;;;4.30;;
65822;SDS011;52585;47.566;19.056;2023-02-28T05:46:12;5.60;;;3.60;;
65822;SDS011;52585;47.566;19.056;2023-02-28T05:48:39;5.00;;;3.80;;
65822;SDS011;52585;47.566;19.056;2023-02-28T05:51:08;5.60;;;4.10;;
65822;SDS011;52585;47.566;19.056;2023-02-28T05:53:34;5.20;;;4.20;;
65822;SDS011;52585;47.566;19.056;2023-02-28T05:56:01;7.90;;;3.20;;
65822;SDS011;52585;47.566;19.056;2023-02-28T05:58:26;4.10;;;3.60;;
65822;SDS011;52585;47.566;19.056;2023-02-28T06:00:59;5.50;;;4.00;;
65822;SDS011;52585;47.566;19.056;2023-02-28T06:03:27;4.30;;;3.50;;
65822;SDS011;52585;47.566;19.056;2023-02-28T06:05:53;7.30;;;3.90;;
65822;SDS011;52585;47.566;19.056;2023-02-28T06:08:19;4.30;;;3.70;;
65822;SDS011;52585;47.566;19.056;2023-02-28T06:10:44;5.30;;;3.80;;
65822;SDS011;52585;47.566;19.056;2023-02-28T06:13:10;7.00;;;4.40;;
65822;SDS011;52585;47.566;19.056;2023-02-28T06:15:37;7.10;;;3.30;;
65822;SDS011;52585;47.566;19.056;2023-02-28T06:18:03;5.50;;;3.40;;
65822;SDS011;52585;47.566;19.056;2023-02-28T06:20:29;4.10;;;3.50;;
65822;SDS011;52585;47.566;19.056;2023-02-28T06:22:56;4.90;;;3.60;;
65822;SDS011;52585;47.566;19.056;2023-02-28T06:25:24;4.30;;;3.40;;
65822;SDS011;52585;47.566;19.056;2023-02-28T06:27:51;6.70;;;3.40;;
65822;SDS011;52585;47.566;19.056;2023-02-28T06:30:17;3.90;;;3.60;;
65822;SDS011;52585;47.566;19.056;2023-02-28T06:32:43;8.00;;;3.90;;
65822;SDS011;52585;47.566;19.056;2023-02-28T06:35:09;4.60;;;3.30;;
65822;SDS011;52585;47.566;19.056;2023-02-28T06:37:35;3.80;;;3.40;;
65822;SDS011;52585;47.566;19.056;2023-02-28T06:40:01;4.60;;;3.00;;
65822;SDS011;52585;47.566;19.056;2023-02-28T06:42:28;4.10;;;3.20;;
65822;SDS011;52585;47.566;19.056;2023-02-28T06:44:57;4.00;;;3.50;;
65822;SDS011;52585;47.566;19.056;2023-02-28T06:47:23;3.10;;;2.70;;
65822;SDS011;52585;47.566;19.056;2023-02-28T06:49:49;3.90;;;2.80;;
65822;SDS011;52585;47.566;19.056;2023-02-28T06:52:16;3.80;;;3.00;;
65822;SDS011;52585;47.566;19.056;2023-02-28T06:54:41;3.10;;;2.80;;
65822;SDS011;52585;47.566;19.056;2023-02-28T06:57:07;5.20;;;3.60;;
65822;SDS011;52585;47.566;19.056;2023-02-28T06:59:33;3.60;;;3.00;;
65822;SDS011;52585;47.566;19.056;2023-02-28T07:02:00;3.50;;;2.70;;
65822;SDS011;52585;47.566;19.056;2023-02-28T07:04:27;5.10;;;2.70;;
65822;SDS011;52585;47.566;19.056;2023-02-28T07:06:54;3.70;;;3.20;;
65822;SDS011;52585;47.566;19.056;2023-02-28T07:09:22;4.20;;;3.10;;
65822;SDS011;52585;47.566;19.056;2023-02-28T07:11:48;4.20;;;2.80;;
65822;SDS011;52585;47.566;19.056;2023-02-28T07:14:14;3.20;;;2.80;;
65822;SDS011;52585;47.566;19.056;2023-02-28T07:16:39;3.70;;;3.20;;
65822;SDS011;52585;47.566;19.056;2023-02-28T07:19:05;3.70;;;3.30;;
65822;SDS011;52585;47.566;19.056;2023-02-28T07:21:30;4.20;;;3.80;;
65822;SDS011;52585;47.566;19.056;2023-02-28T07:23:56;3.30;;;2.70;;
65822;SDS011;52585;47.566;19.056;2023-02-28T07:26:22;3.30;;;2.90;;
65822;SDS011;52585;47.566;19.056;2023-02-28T07:28:48;3.00;;;2.40;;
65822;SDS011;52585;47.566;19.056;2023-02-28T07:31:14;4.60;;;2.70;;
65822;SDS011;52585;47.566;19.056;2023-02-28T07:33:41;3.30;;;3.00;;
65822;SDS011;52585;47.566;19.056;2023-02-28T07:36:13;3.00;;;2.50;;
65822;SDS011;52585;47.566;19.056;2023-02-28T07:38:45;3.30;;;2.80;;
65822;SDS011;52585;47.566;19.056;2023-02-28T07:41:17;2.90;;;2.60;;
65822;SDS011;52585;47.566;19.056;2023-02-28T07:43:45;3.80;;;3.00;;
65822;SDS011;52585;47.566;19.056;2023-02-28T07:46:13;3.30;;;3.00;;
65822;SDS011;52585;47.566;19.056;2023-02-28T07:48:44;4.20;;;2.70;;
65822;SDS011;52585;47.566;19.056;2023-02-28T07:51:10;2.70;;;2.40;;
65822;SDS011;52585;47.566;19.056;2023-02-28T07:53:35;2.90;;;2.50;;
65822;SDS011;52585;47.566;19.056;2023-02-28T07:56:02;2.80;;;2.60;;
65822;SDS011;52585;47.566;19.056;2023-02-28T07:58:29;3.50;;;2.90;;
65822;SDS011;52585;47.566;19.056;2023-02-28T08:00:56;4.20;;;3.00;;
65822;SDS011;52585;47.566;19.056;2023-02-28T08:03:23;5.80;;;3.50;;
65822;SDS011;52585;47.566;19.056;2023-02-28T08:05:50;3.90;;;3.00;;
65822;SDS011;52585;47.566;19.056;2023-02-28T08:08:17;3.40;;;2.80;;
65822;SDS011;52585;47.566;19.056;2023-02-28T08:10:43;4.40;;;2.90;;
65822;SDS011;52585;47.566;19.056;2023-02-28T08:13:09;3.10;;;2.80;;
65822;SDS011;52585;47.566;19.056;2023-02-28T08:15:35;4.10;;;2.80;;
65822;SDS011;52585;47.566;19.056;2023-02-28T08:18:01;2.90;;;2.50;;
65822;SDS011;52585;47.566;19.056;2023-02-28T08:20:27;3.50;;;2.90;;
65822;SDS011;52585;47.566;19.056;2023-02-28T08:22:53;3.20;;;2.80;;
65822;SDS011;52585;47.566;19.056;2023-02-28T08:25:19;3.80;;;3.20;;
65822;SDS011;52585;47.566;19.056;2023-02-28T08:27:45;4.20;;;3.30;;
65822;SDS011;52585;47.566;19.056;2023-02-28T08:30:12;6.60;;;3.60;;
65822;SDS011;52585;47.566;19.056;2023-02-28T08:32:39;3.90;;;3.20;;
65822;SDS011;52585;47.566;19.056;2023-02-28T08:35:06;3.60;;;3.30;;
65822;SDS011;52585;47.566;19.056;2023-02-28T08:37:34;3.50;;;2.70;;
65822;SDS011;52585;47.566;19.056;2023-02-28T08:40:00;3.40;;;2.90;;
65822;SDS011;52585;47.566;19.056;2023-02-28T08:42:25;3.30;;;3.00;;
65822;SDS011;52585;47.566;19.056;2023-02-28T08:44:51;3.10;;;2.50;;
65822;SDS011;52585;47.566;19.056;2023-02-28T08:47:17;2.70;;;2.50;;
65822;SDS011;52585;47.566;19.056;2023-02-28T08:49:42;2.70;;;2.40;;
65822;SDS011;52585;47.566;19.056;2023-02-28T08:52:08;2.50;;;2.30;;
65822;SDS011;52585;47.566;19.056;2023-02-28T08:54:34;3.40;;;3.00;;
65822;SDS011;52585;47.566;19.056;2023-02-28T08:57:00;3.10;;;2.60;;
65822;SDS011;52585;47.566;19.056;2023-02-28T08:59:27;5.10;;;3.10;;
65822;SDS011;52585;47.566;19.056;2023-02-28T09:01:52;3.00;;;2.70;;
65822;SDS011;52585;47.566;19.056;2023-02-28T09:04:18;3.80;;;2.90;;
65822;SDS011;52585;47.566;19.056;2023-02-28T09:06:43;3.90;;;2.70;;
65822;SDS011;52585;47.566;19.056;2023-02-28T09:09:10;2.80;;;2.60;;
65822;SDS011;52585;47.566;19.056;2023-02-28T09:11:36;3.40;;;2.40;;
65822;SDS011;52585;47.566;19.056;2023-02-28T09:14:02;3.10;;;2.80;;
65822;SDS011;52585;47.566;19.056;2023-02-28T09:16:30;3.20;;;2.60;;
65822;SDS011;52585;47.566;19.056;2023-02-28T09:18:57;6.40;;;2.30;;
65822;SDS011;52585;47.566;19.056;2023-02-28T09:21:23;2.80;;;2.50;;
65822;SDS011;52585;47.566;19.056;2023-02-28T09:23:50;2.90;;;2.40;;
65822;SDS011;52585;47.566;19.056;2023-02-28T09:28:43;6.20;;;2.60;;
65822;SDS011;52585;47.566;19.056;2023-02-28T09:31:19;2.70;;;2.40;;
65822;SDS011;52585;47.566;19.056;2023-02-28T09:33:49;2.70;;;2.20;;
65822;SDS011;52585;47.566;19.056;2023-02-28T09:36:16;2.10;;;1.90;;
65822;SDS011;52585;47.566;19.056;2023-02-28T09:38:42;2.90;;;2.40;;
65822;SDS011;52585;47.566;19.056;2023-02-28T09:41:17;2.20;;;2.00;;
65822;SDS011;52585;47.566;19.056;2023-02-28T09:43:55;2.60;;;2.30;;
65822;SDS011;52585;47.566;19.056;2023-02-28T09:46:42;2.90;;;1.90;;
65822;SDS011;52585;47.566;19.056;2023-02-28T09:49:18;3.20;;;2.10;;
65822;SDS011;52585;47.566;19.056;2023-02-28T09:51:55;2.10;;;1.90;;
65822;SDS011;52585;47.566;19.056;2023-02-28T09:54:28;2.10;;;1.90;;
65822;SDS011;52585;47.566;19.056;2023-02-28T10:05:50;2.10;;;1.90;;
65822;SDS011;52585;47.566;19.056;2023-02-28T10:08:31;2.00;;;1.80;;
65822;SDS011;52585;47.566;19.056;2023-02-28T10:11:07;3.00;;;2.10;;
65822;SDS011;52585;47.566;19.056;2023-02-28T10:13:45;2.90;;;2.20;;
65822;SDS011;52585;47.566;19.056;2023-02-28T10:16:29;3.90;;;2.60;;
65822;SDS011;52585;47.566;19.056;2023-02-28T10:19:17;4.10;;;2.50;;
65822;SDS011;52585;47.566;19.056;2023-02-28T10:22:05;3.30;;;2.10;;
65822;SDS011;52585;47.566;19.056;2023-02-28T10:24:52;2.30;;;1.90;;
65822;SDS011;52585;47.566;19.056;2023-02-28T10:27:28;2.10;;;2.00;;
65822;SDS011;52585;47.566;19.056;2023-02-28T10:29:58;4.00;;;2.50;;
65822;SDS011;52585;47.566;19.056;2023-02-28T10:35:19;3.10;;;2.50;;
65822;SDS011;52585;47.566;19.056;2023-02-28T10:37:52;3.10;;;2.60;;
65822;SDS011;52585;47.566;19.056;2023-02-28T10:45:27;3.30;;;2.70;;
65822;SDS011;52585;47.566;19.056;2023-02-28T10:48:04;3.10;;;2.30;;
65822;SDS011;52585;47.566;19.056;2023-02-28T10:50:43;2.30;;;2.10;;
65822;SDS011;52585;47.566;19.056;2023-02-28T11:01:21;3.20;;;2.40;;
65822;SDS011;52585;47.566;19.056;2023-02-28T11:03:49;3.00;;;2.50;;
65822;SDS011;52585;47.566;19.056;2023-02-28T11:06:32;2.80;;;2.60;;
65822;SDS011;52585;47.566;19.056;2023-02-28T11:11:51;3.00;;;2.40;;
65822;SDS011;52585;47.566;19.056;2023-02-28T11:14:26;4.60;;;2.60;;
65822;SDS011;52585;47.566;19.056;2023-02-28T11:16:54;2.70;;;2.40;;
65822;SDS011;52585;47.566;19.056;2023-02-28T11:19:33;2.90;;;2.60;;
65822;SDS011;52585;47.566;19.056;2023-02-28T11:22:04;2.50;;;2.30;;
65822;SDS011;52585;47.566;19.056;2023-02-28T11:24:45;2.90;;;2.50;;
65822;SDS011;52585;47.566;19.056;2023-02-28T11:27:26;3.00;;;2.60;;
65822;SDS011;52585;47.566;19.056;2023-02-28T11:29:54;2.40;;;2.20;;
65822;SDS011;52585;47.566;19.056;2023-02-28T11:32:23;4.00;;;2.80;;
65822;SDS011;52585;47.566;19.056;2023-02-28T11:35:15;3.10;;;2.70;;
65822;SDS011;52585;47.566;19.056;2023-02-28T11:37:47;2.80;;;2.60;;
65822;SDS011;52585;47.566;19.056;2023-02-28T11:40:28;3.30;;;3.00;;
65822;SDS011;52585;47.566;19.056;2023-02-28T11:43:20;3.30;;;2.90;;
65822;SDS011;52585;47.566;19.056;2023-02-28T12:01:28;3.10;;;2.80;;
65822;SDS011;52585;47.566;19.056;2023-02-28T12:04:24;5.40;;;3.30;;
65822;SDS011;52585;47.566;19.056;2023-02-28T12:18:28;5.30;;;3.20;;
65822;SDS011;52585;47.566;19.056;2023-02-28T12:29:09;3.50;;;3.00;;
65822;SDS011;52585;47.566;19.056;2023-02-28T12:31:49;4.50;;;2.80;;
65822;SDS011;52585;47.566;19.056;2023-02-28T12:34:29;3.00;;;2.70;;
65822;SDS011;52585;47.566;19.056;2023-02-28T12:37:07;3.30;;;2.70;;
65822;SDS011;52585;47.566;19.056;2023-02-28T12:39:44;5.20;;;2.90;;
65822;SDS011;52585;47.566;19.056;2023-02-28T12:42:19;3.20;;;2.70;;
65822;SDS011;52585;47.566;19.056;2023-02-28T12:44:59;3.60;;;2.80;;
65822;SDS011;52585;47.566;19.056;2023-02-28T12:47:26;3.10;;;2.80;;
65822;SDS011;52585;47.566;19.056;2023-02-28T12:49:56;3.30;;;2.60;;
65822;SDS011;52585;47.566;19.056;2023-02-28T12:55:41;3.20;;;2.30;;
65822;SDS011;52585;47.566;19.056;2023-02-28T13:07:20;2.60;;;2.40;;
65822;SDS011;52585;47.566;19.056;2023-02-28T13:10:03;3.30;;;3.00;;
65822;SDS011;52585;47.566;19.056;2023-02-28T13:12:33;3.10;;;2.80;;
65822;SDS011;52585;47.566;19.056;2023-02-28T13:15:28;3.20;;;2.80;;
65822;SDS011;52585;47.566;19.056;2023-02-28T13:17:56;4.20;;;2.80;;
65822;SDS011;52585;47.566;19.056;2023-02-28T13:20:27;3.20;;;2.90;;
65822;SDS011;52585;47.566;19.056;2023-02-28T13:22:57;3.20;;;2.80;;
65822;SDS011;52585;47.566;19.056;2023-02-28T13:27:50;3.10;;;2.90;;
65822;SDS011;52585;47.566;19.056;2023-02-28T13:38:46;3.20;;;2.70;;
65822;SDS011;52585;47.566;19.056;2023-02-28T13:44:17;2.90;;;2.70;;
65822;SDS011;52585;47.566;19.056;2023-02-28T13:51:49;6.10;;;3.10;;
65822;SDS011;52585;47.566;19.056;2023-02-28T13:57:10;4.90;;;2.80;;
65822;SDS011;52585;47.566;19.056;2023-02-28T13:59:55;3.10;;;2.60;;
65822;SDS011;52585;47.566;19.056;2023-02-28T14:05:21;3.00;;;2.70;;
65822;SDS011;52585;47.566;19.056;2023-02-28T14:07:54;3.60;;;2.60;;
65822;SDS011;52585;47.566;19.056;2023-02-28T14:10:32;3.10;;;2.50;;
65822;SDS011;52585;47.566;19.056;2023-02-28T14:13:03;7.00;;;3.70;;
65822;SDS011;52585;47.566;19.056;2023-02-28T14:21:48;3.60;;;3.30;;
65822;SDS011;52585;47.566;19.056;2023-02-28T14:26:56;3.40;;;2.90;;
65822;SDS011;52585;47.566;19.056;2023-02-28T14:32:32;2.70;;;2.50;;
65822;SDS011;52585;47.566;19.056;2023-02-28T14:37:44;4.00;;;3.00;;
65822;SDS011;52585;47.566;19.056;2023-02-28T14:40:21;3.10;;;2.80;;
65822;SDS011;52585;47.566;19.056;2023-02-28T14:42:56;2.90;;;2.60;;
65822;SDS011;52585;47.566;19.056;2023-02-28T14:45:29;3.20;;;2.60;;
65822;SDS011;52585;47.566;19.056;2023-02-28T14:47:58;4.20;;;2.80;;
65822;SDS011;52585;47.566;19.056;2023-02-28T14:50:31;4.50;;;2.90;;
65822;SDS011;52585;47.566;19.056;2023-02-28T14:53:01;4.50;;;3.20;;
65822;SDS011;52585;47.566;19.056;2023-02-28T14:55:33;3.30;;;2.80;;
65822;SDS011;52585;47.566;19.056;2023-02-28T14:58:03;3.80;;;3.40;;
65822;SDS011;52585;47.566;19.056;2023-02-28T15:00:36;3.50;;;3.20;;
65822;SDS011;52585;47.566;19.056;2023-02-28T15:06:14;3.50;;;3.20;;
65822;SDS011;52585;47.566;19.056;2023-02-28T15:08:45;3.70;;;2.80;;
65822;SDS011;52585;47.566;19.056;2023-02-28T15:11:16;3.50;;;2.70;;
65822;SDS011;52585;47.566;19.056;2023-02-28T15:13:52;3.10;;;2.80;;
65822;SDS011;52585;47.566;19.056;2023-02-28T15:16:24;3.40;;;2.70;;
65822;SDS011;52585;47.566;19.056;2023-02-28T15:19:05;3.00;;;2.50;;
65822;SDS011;52585;47.566;19.056;2023-02-28T15:21:43;4.90;;;3.00;;
65822;SDS011;52585;47.566;19.056;2023-02-28T15:24:16;2.90;;;2.60;;
65822;SDS011;52585;47.566;19.056;2023-02-28T15:27:15;3.00;;;2.60;;
65822;SDS011;52585;47.566;19.056;2023-02-28T15:29:49;3.40;;;2.90;;
65822;SDS011;52585;47.566;19.056;2023-02-28T15:32:36;4.70;;;3.20;;
65822;SDS011;52585;47.566;19.056;2023-02-28T15:35:20;2.90;;;2.60;;
65822;SDS011;52585;47.566;19.056;2023-02-28T15:38:03;3.10;;;2.70;;
65822;SDS011;52585;47.566;19.056;2023-02-28T15:40:58;3.50;;;2.70;;
65822;SDS011;52585;47.566;19.056;2023-02-28T15:43:27;4.20;;;2.90;;
65822;SDS011;52585;47.566;19.056;2023-02-28T15:45:57;6.80;;;3.40;;
65822;SDS011;52585;47.566;19.056;2023-02-28T15:48:30;3.00;;;2.70;;
65822;SDS011;52585;47.566;19.056;2023-02-28T15:53:32;3.40;;;2.90;;
65822;SDS011;52585;47.566;19.056;2023-02-28T15:56:03;3.60;;;2.90;;
65822;SDS011;52585;47.566;19.056;2023-02-28T15:58:34;3.70;;;3.30;;
65822;SDS011;52585;47.566;19.056;2023-02-28T16:03:57;3.90;;;3.50;;
65822;SDS011;52585;47.566;19.056;2023-02-28T16:08:59;5.00;;;3.50;;
65822;SDS011;52585;47.566;19.056;2023-02-28T16:11:25;5.90;;;3.80;;
65822;SDS011;52585;47.566;19.056;2023-02-28T16:13:52;4.90;;;3.80;;
65822;SDS011;52585;47.566;19.056;2023-02-28T16:16:21;5.40;;;3.60;;
65822;SDS011;52585;47.566;19.056;2023-02-28T16:18:50;4.70;;;4.00;;
65822;SDS011;52585;47.566;19.056;2023-02-28T16:21:16;6.10;;;3.90;;
65822;SDS011;52585;47.566;19.056;2023-02-28T16:23:42;5.20;;;3.80;;
65822;SDS011;52585;47.566;19.056;2023-02-28T16:26:18;4.30;;;4.00;;
65822;SDS011;52585;47.566;19.056;2023-02-28T16:28:47;4.20;;;3.80;;
65822;SDS011;52585;47.566;19.056;2023-02-28T16:31:13;5.20;;;3.80;;
65822;SDS011;52585;47.566;19.056;2023-02-28T16:33:43;5.80;;;3.60;;
65822;SDS011;52585;47.566;19.056;2023-02-28T16:36:17;5.60;;;3.90;;
65822;SDS011;52585;47.566;19.056;2023-02-28T16:38:48;4.80;;;3.70;;
65822;SDS011;52585;47.566;19.056;2023-02-28T16:41:18;5.30;;;4.20;;
65822;SDS011;52585;47.566;19.056;2023-02-28T16:43:48;5.10;;;3.90;;
65822;SDS011;52585;47.566;19.056;2023-02-28T16:46:17;6.40;;;4.00;;
65822;SDS011;52585;47.566;19.056;2023-02-28T16:48:44;4.60;;;3.70;;
65822;SDS011;52585;47.566;19.056;2023-02-28T16:51:14;5.10;;;4.30;;
65822;SDS011;52585;47.566;19.056;2023-02-28T16:53:41;4.30;;;3.90;;
65822;SDS011;52585;47.566;19.056;2023-02-28T16:56:18;6.60;;;4.30;;
65822;SDS011;52585;47.566;19.056;2023-02-28T16:58:47;4.90;;;3.80;;
65822;SDS011;52585;47.566;19.056;2023-02-28T17:01:14;4.50;;;4.00;;
65822;SDS011;52585;47.566;19.056;2023-02-28T17:03:40;6.10;;;4.30;;
65822;SDS011;52585;47.566;19.056;2023-02-28T17:06:16;5.40;;;4.30;;
65822;SDS011;52585;47.566;19.056;2023-02-28T17:08:46;5.20;;;3.90;;
65822;SDS011;52585;47.566;19.056;2023-02-28T17:11:11;4.70;;;4.00;;
65822;SDS011;52585;47.566;19.056;2023-02-28T17:13:37;5.90;;;3.90;;
65822;SDS011;52585;47.566;19.056;2023-02-28T17:16:03;6.40;;;4.10;;
65822;SDS011;52585;47.566;19.056;2023-02-28T17:18:29;5.50;;;4.10;;
65822;SDS011;52585;47.566;19.056;2023-02-28T17:21:00;5.10;;;3.90;;
65822;SDS011;52585;47.566;19.056;2023-02-28T17:23:26;5.30;;;4.20;;
65822;SDS011;52585;47.566;19.056;2023-02-28T17:25:52;5.50;;;4.50;;
65822;SDS011;52585;47.566;19.056;2023-02-28T17:28:21;8.70;;;4.20;;
65822;SDS011;52585;47.566;19.056;2023-02-28T17:30:47;7.60;;;4.50;;
65822;SDS011;52585;47.566;19.056;2023-02-28T17:33:14;5.30;;;4.60;;
65822;SDS011;52585;47.566;19.056;2023-02-28T17:35:41;5.90;;;4.50;;